Time;durP1;ratioP1;P1;durP2;ratioP2;P2;SDS_P1;SDS_P2;PMS_P1;PMS_P2;Temp;Humidity;BMP_temperature;BMP_pressure;BME280_temperature;BME280_humidity;BME280_pressure;Samples;Min_cycle;Max_cycle;Signal;HPM_P1;HPM_P2
2022/04/07 00:01:33;;;;;;;;;3.00;2.00;;;;;11.99;66.45;99247.13;5035393;28;45395;-63
2022/04/07 00:03:58;;;;;;;;;1.00;1.00;;;;;12.10;66.38;99257.81;5035514;28;45375;-63
2022/04/07 00:06:23;;;;;;;;;1.00;1.00;;;;;12.10;66.90;99271.84;5035141;28;45437;-63
2022/04/07 00:08:49;;;;;;;;;1.00;1.00;;;;;12.12;66.31;99251.53;5035419;28;45462;-64
2022/04/07 00:11:15;;;;;;;;;1.00;1.00;;;;;12.01;66.92;99238.19;5035281;28;45471;-63
2022/04/07 00:13:40;;;;;;;;;0.00;0.00;;;;;12.03;66.14;99236.28;5035290;28;45375;-63
2022/04/07 00:16:06;;;;;;;;;1.33;1.33;;;;;12.04;66.92;99234.50;5033884;28;45398;-63
2022/04/07 00:18:32;;;;;;;;;1.00;1.00;;;;;12.05;65.74;99223.00;5035026;28;47458;-63
2022/04/07 00:20:57;;;;;;;;;2.00;2.00;;;;;12.09;65.78;99227.13;5034997;28;45437;-64
2022/04/07 00:23:23;;;;;;;;;0.67;0.67;;;;;12.08;66.37;99221.00;5035437;28;45414;-64
2022/04/07 00:25:49;;;;;;;;;1.00;1.00;;;;;12.03;66.64;99211.72;5035234;28;45585;-64
2022/04/07 00:28:15;;;;;;;;;2.00;2.00;;;;;12.08;65.71;99218.38;5033593;28;45435;-64
2022/04/07 00:30:41;;;;;;;;;0.00;0.00;;;;;12.07;66.29;99206.16;5035099;28;45473;-64
2022/04/07 00:33:07;;;;;;;;;1.00;1.00;;;;;12.10;66.36;99213.88;5035093;28;45484;-64
2022/04/07 00:35:33;;;;;;;;;1.67;1.67;;;;;12.13;66.23;99207.56;5034877;28;45578;-64
2022/04/07 00:37:59;;;;;;;;;1.00;1.00;;;;;12.09;65.92;99206.91;5035010;28;45643;-64
2022/04/07 00:40:25;;;;;;;;;0.67;0.67;;;;;12.07;65.88;99208.78;5034812;28;45522;-64
2022/04/07 00:42:52;;;;;;;;;3.67;1.00;;;;;12.04;66.24;99201.09;5034985;28;45402;-64
2022/04/07 00:45:19;;;;;;;;;2.00;1.00;;;;;12.00;66.00;99172.38;5030438;28;45668;-63
2022/04/07 00:47:46;;;;;;;;;1.00;1.00;;;;;12.02;65.69;99183.69;5030741;28;47044;-64
2022/04/07 00:50:13;;;;;;;;;2.00;1.00;;;;;12.01;66.07;99176.72;5034699;28;45426;-64
2022/04/07 00:52:45;;;;;;;;;2.67;1.67;;;;;11.98;65.94;99169.00;5033333;28;45470;-64
2022/04/07 00:55:11;;;;;;;;;1.00;1.00;;;;;11.93;66.00;99156.16;5034687;28;45328;-64
2022/04/07 00:57:39;;;;;;;;;1.00;1.00;;;;;11.99;65.85;99158.38;5034657;28;46177;-64
2022/04/07 01:00:06;;;;;;;;;3.33;2.00;;;;;12.03;65.30;99161.66;5034456;28;45500;-64
2022/04/07 01:02:31;;;;;;;;;3.00;2.00;;;;;12.03;65.31;99151.94;5033425;28;45510;-64
2022/04/07 01:04:57;;;;;;;;;0.33;0.33;;;;;11.98;65.27;99159.31;5034651;28;45436;-64
2022/04/07 01:07:24;;;;;;;;;1.67;1.67;;;;;11.96;64.97;99142.78;5034507;28;45511;-64
2022/04/07 01:09:50;;;;;;;;;1.33;1.33;;;;;11.95;66.04;99135.78;5034617;28;45452;-64
2022/04/07 01:12:15;;;;;;;;;2.00;2.00;;;;;12.00;65.83;99131.06;5037336;28;45447;-64
2022/04/07 01:15:13;;;;;;;;;1.67;0.67;;;;;12.01;65.16;99122.25;5036679;28;45379;-64
2022/04/07 01:17:39;;;;;;;;;0.00;0.00;;;;;12.05;65.34;99113.19;5014879;28;46365;-62
2022/04/07 01:20:06;;;;;;;;;1.00;1.00;;;;;12.07;65.06;99115.72;5037957;28;45532;-64
2022/04/07 01:22:35;;;;;;;;;1.00;1.00;;;;;12.06;65.06;99101.72;5037914;28;45485;-64
2022/04/07 01:25:00;;;;;;;;;2.00;2.00;;;;;12.04;65.09;99108.03;5037902;28;45582;-64
2022/04/07 01:27:27;;;;;;;;;1.00;1.00;;;;;12.01;66.11;99106.44;5037494;28;46092;-65
2022/04/07 01:29:52;;;;;;;;;1.67;0.67;;;;;11.97;65.24;99110.19;5037722;28;45402;-63
2022/04/07 01:32:22;;;;;;;;;3.00;3.00;;;;;11.85;66.94;99098.66;5037845;28;45452;-63
2022/04/07 01:34:48;;;;;;;;;1.00;1.00;;;;;11.89;66.33;99107.22;5037753;28;45531;-64
2022/04/07 01:37:13;;;;;;;;;5.33;4.00;;;;;11.88;66.21;99108.16;5037397;28;46170;-64
2022/04/07 01:39:41;;;;;;;;;5.00;2.33;;;;;11.88;66.43;99100.28;5037694;28;45342;-64
2022/04/07 01:42:08;;;;;;;;;2.00;1.00;;;;;11.92;66.36;99099.94;5037520;28;45489;-64
2022/04/07 01:44:38;;;;;;;;;1.00;1.00;;;;;11.90;67.22;99096.59;5037395;28;45716;-64
2022/04/07 01:47:05;;;;;;;;;2.67;0.67;;;;;11.91;67.04;99092.16;5037398;28;45481;-63
2022/04/07 01:49:35;;;;;;;;;2.00;2.00;;;;;11.94;67.07;99076.16;5037489;28;45463;-64
2022/04/07 01:52:03;;;;;;;;;2.00;1.33;;;;;11.95;67.53;99093.63;5037505;28;45412;-64
2022/04/07 01:54:28;;;;;;;;;2.00;2.00;;;;;11.84;67.77;99090.81;5037302;28;45455;-63
2022/04/07 01:56:56;;;;;;;;;2.00;2.00;;;;;11.89;69.27;99084.34;5037226;28;46441;-63
2022/04/07 01:59:22;;;;;;;;;1.00;1.00;;;;;11.89;69.88;99080.88;5037117;28;45453;-64
2022/04/07 02:01:47;;;;;;;;;1.00;1.00;;;;;11.83;69.00;99081.25;5037009;28;45488;-66
2022/04/07 02:04:12;;;;;;;;;2.67;1.00;;;;;11.90;69.36;99077.28;5037361;28;45491;-64
2022/04/07 02:06:37;;;;;;;;;2.00;1.33;;;;;11.94;69.19;99081.41;5036995;28;46295;-64
2022/04/07 02:09:03;;;;;;;;;3.00;1.00;;;;;11.97;68.95;99094.38;5035731;28;45790;-64
2022/04/07 02:11:28;;;;;;;;;1.00;1.00;;;;;11.90;68.96;99077.28;5035996;28;45475;-65
2022/04/07 02:13:54;;;;;;;;;4.00;2.00;;;;;11.88;69.77;99074.75;5037082;28;45474;-64
2022/04/07 02:16:20;;;;;;;;;0.67;0.67;;;;;11.86;69.76;99060.84;5035685;28;47846;-64
2022/04/07 02:18:46;;;;;;;;;4.00;1.00;;;;;11.90;69.49;99067.63;5037183;28;45499;-64
2022/04/07 02:21:11;;;;;;;;;1.00;1.00;;;;;11.91;69.13;99048.22;5037040;28;45521;-63
2022/04/07 02:23:42;;;;;;;;;3.00;2.00;;;;;11.77;68.95;99021.91;5035490;28;47012;-64
2022/04/07 02:26:17;;;;;;;;;6.33;1.00;;;;;11.87;69.01;99049.34;5036877;28;46174;-63
2022/04/07 02:28:43;;;;;;;;;2.00;2.00;;;;;11.90;69.12;99033.38;5036769;28;45468;-63
2022/04/07 02:31:09;;;;;;;;;3.00;1.00;;;;;11.88;70.53;99034.41;5036749;28;45451;-62
2022/04/07 02:33:35;;;;;;;;;1.00;1.00;;;;;11.85;69.94;99022.25;5036828;28;45467;-63
2022/04/07 02:36:04;;;;;;;;;2.00;2.00;;;;;11.78;70.68;98988.50;5036430;28;46444;-63
2022/04/07 02:38:30;;;;;;;;;3.00;1.33;;;;;11.82;71.01;99014.56;5036433;28;45350;-64
2022/04/07 02:40:56;;;;;;;;;4.00;1.33;;;;;11.81;70.98;98993.56;5036822;28;45441;-64
2022/04/07 02:43:21;;;;;;;;;1.33;1.33;;;;;11.76;70.80;98985.13;5036607;28;45368;-63
2022/04/07 02:45:46;;;;;;;;;2.33;0.67;;;;;11.83;71.26;98987.25;5036503;28;45416;-63
2022/04/07 02:48:12;;;;;;;;;2.00;1.00;;;;;11.84;70.67;98970.50;5036577;28;45502;-63
2022/04/07 02:50:37;;;;;;;;;1.00;1.00;;;;;11.90;71.44;98969.28;5036673;28;45433;-64
2022/04/07 02:53:03;;;;;;;;;2.67;1.00;;;;;11.86;72.12;98962.53;5036587;28;45448;-63
2022/04/07 02:55:28;;;;;;;;;1.00;1.00;;;;;11.80;71.20;98955.84;5036431;28;46096;-63
2022/04/07 02:57:58;;;;;;;;;2.00;1.00;;;;;11.83;71.61;98955.66;5034943;28;45599;-63
2022/04/07 03:00:23;;;;;;;;;4.00;3.00;;;;;11.77;72.08;98942.03;5036383;28;45435;-63
2022/04/07 03:02:48;;;;;;;;;2.00;2.00;;;;;11.75;71.78;98946.56;5036540;28;45554;-63
2022/04/07 03:05:15;;;;;;;;;1.00;1.00;;;;;11.72;72.53;98937.94;5036195;28;45427;-64
2022/04/07 03:07:40;;;;;;;;;1.00;1.00;;;;;11.73;71.48;98939.59;5034732;28;45391;-63
2022/04/07 03:10:06;;;;;;;;;2.00;2.00;;;;;11.79;72.27;98933.06;5036554;28;45423;-64
2022/04/07 03:12:31;;;;;;;;;2.00;2.00;;;;;11.80;71.28;98939.22;5036502;28;45693;-64
2022/04/07 03:14:56;;;;;;;;;2.00;2.00;;;;;11.77;71.82;98929.72;5036260;28;46119;-64
2022/04/07 03:17:21;;;;;;;;;1.00;1.00;;;;;11.80;72.20;98913.72;5036354;28;45425;-64
2022/04/07 03:19:47;;;;;;;;;2.00;2.00;;;;;11.84;71.46;98898.53;5036323;28;45453;-64
2022/04/07 03:22:12;;;;;;;;;2.67;2.00;;;;;11.90;71.28;98901.66;5034718;28;45449;-64
2022/04/07 03:24:38;;;;;;;;;2.00;1.33;;;;;11.91;72.51;98892.78;5036098;28;45420;-63
2022/04/07 03:27:07;;;;;;;;;1.67;1.67;;;;;11.95;72.67;98896.03;5035976;28;45427;-64
2022/04/07 03:29:34;;;;;;;;;1.00;1.00;;;;;11.93;72.25;98890.06;5036093;28;45465;-63
2022/04/07 03:31:59;;;;;;;;;2.33;1.67;;;;;11.89;72.37;98872.75;5035819;28;45436;-63
2022/04/07 03:34:24;;;;;;;;;2.33;2.00;;;;;11.88;72.46;98858.75;5035255;28;46122;-63
2022/04/07 03:36:50;;;;;;;;;1.00;1.00;;;;;11.90;72.75;98856.00;5034524;28;45469;-64
2022/04/07 03:39:15;;;;;;;;;3.00;2.00;;;;;11.80;72.61;98839.13;5036004;28;45454;-64
2022/04/07 03:41:40;;;;;;;;;5.00;2.67;;;;;11.81;72.93;98835.53;5035686;28;45439;-63
2022/04/07 03:44:09;;;;;;;;;3.33;2.00;;;;;11.89;72.20;98838.50;5035624;28;46379;-63
2022/04/07 03:46:35;;;;;;;;;2.00;2.00;;;;;11.91;72.51;98832.19;5035868;28;45499;-64
2022/04/07 03:49:01;;;;;;;;;1.33;1.33;;;;;11.87;72.75;98817.53;5035859;28;45418;-64
2022/04/07 03:51:26;;;;;;;;;3.67;3.00;;;;;11.87;73.11;98807.00;5034507;28;45619;-64
2022/04/07 03:53:51;;;;;;;;;3.67;2.00;;;;;11.88;73.98;98799.97;5035458;28;45487;-64
2022/04/07 03:56:17;;;;;;;;;1.67;1.67;;;;;11.86;72.72;98780.78;5035598;28;45372;-62
2022/04/07 03:58:42;;;;;;;;;2.33;2.00;;;;;11.90;72.30;98769.06;5035652;28;45434;-63
2022/04/07 04:01:09;;;;;;;;;2.00;2.00;;;;;11.97;72.41;98765.06;5034191;28;45610;-64
2022/04/07 04:03:34;;;;;;;;;2.00;2.00;;;;;11.90;73.50;98776.97;5035458;28;45941;-63
2022/04/07 04:06:00;;;;;;;;;2.67;2.67;;;;;11.85;73.26;98748.31;5035216;28;45308;-64
2022/04/07 04:08:25;;;;;;;;;1.67;1.67;;;;;11.80;73.86;98765.38;5035532;28;45642;-63
2022/04/07 04:10:50;;;;;;;;;2.00;2.00;;;;;11.84;73.53;98756.31;5035796;28;45525;-64
2022/04/07 04:13:16;;;;;;;;;1.00;1.00;;;;;11.89;73.85;98748.94;5035263;28;45497;-64
2022/04/07 04:15:41;;;;;;;;;2.33;2.00;;;;;11.91;73.60;98754.97;5035092;28;45458;-64
2022/04/07 04:18:06;;;;;;;;;3.33;3.33;;;;;11.90;73.49;98734.81;5035539;28;45415;-64
2022/04/07 04:20:31;;;;;;;;;3.00;1.33;;;;;11.94;73.04;98742.41;5035258;28;45416;-63
2022/04/07 04:22:57;;;;;;;;;4.00;2.00;;;;;11.96;73.42;98736.22;5035149;28;45409;-63
2022/04/07 04:25:22;;;;;;;;;3.33;2.67;;;;;11.97;73.08;98746.63;5034920;28;55496;-64
2022/04/07 04:27:48;;;;;;;;;3.00;3.00;;;;;11.99;72.84;98739.47;5035451;28;45529;-67
2022/04/07 04:30:14;;;;;;;;;3.00;2.00;;;;;12.02;72.67;98725.22;5035093;28;45423;-65
2022/04/07 04:32:39;;;;;;;;;3.00;2.00;;;;;12.04;72.43;98741.78;5034979;28;46262;-64
2022/04/07 04:35:06;;;;;;;;;1.00;1.00;;;;;12.05;72.67;98739.00;5035066;28;45510;-64
2022/04/07 04:37:31;;;;;;;;;3.67;2.00;;;;;12.05;73.40;98733.75;5035306;28;45383;-64
2022/04/07 04:39:57;;;;;;;;;3.00;2.00;;;;;12.09;73.51;98721.19;5034957;28;45582;-64
2022/04/07 04:42:22;;;;;;;;;3.00;2.00;;;;;12.11;72.98;98727.19;5034739;28;45524;-64
2022/04/07 04:44:48;;;;;;;;;4.67;1.67;;;;;12.09;72.92;98711.50;5034987;28;45367;-64
2022/04/07 04:47:16;;;;;;;;;2.67;1.67;;;;;12.12;72.49;98718.34;5037693;28;45465;-64
2022/04/07 04:49:45;;;;;;;;;3.00;1.33;;;;;12.12;72.24;98706.00;5038392;28;45440;-63
2022/04/07 04:52:11;;;;;;;;;3.00;2.33;;;;;12.14;73.39;98719.06;5038238;28;47080;-63
2022/04/07 04:54:36;;;;;;;;;1.00;1.00;;;;;12.10;73.40;98705.28;5038334;28;45446;-63
2022/04/07 04:57:02;;;;;;;;;3.67;3.00;;;;;12.15;73.08;98715.50;5038305;28;45455;-63
2022/04/07 04:59:27;;;;;;;;;1.67;1.33;;;;;12.16;72.31;98707.44;5038482;28;45570;-64
2022/04/07 05:01:53;;;;;;;;;2.67;1.67;;;;;12.17;73.36;98703.06;5038136;28;45409;-64
2022/04/07 05:04:18;;;;;;;;;3.00;2.00;;;;;12.14;73.16;98712.00;5038191;28;45411;-64
2022/04/07 05:06:43;;;;;;;;;3.00;3.00;;;;;12.13;72.77;98689.22;5038214;28;45672;-64
2022/04/07 05:09:09;;;;;;;;;1.67;1.67;;;;;12.20;73.22;98689.66;5038219;28;45412;-64
2022/04/07 05:11:34;;;;;;;;;1.33;1.33;;;;;12.21;72.84;98677.31;5038088;28;46143;-64
2022/04/07 05:14:00;;;;;;;;;1.00;1.00;;;;;12.25;72.60;98687.53;5038264;28;45398;-64
2022/04/07 05:16:25;;;;;;;;;3.00;1.67;;;;;12.26;72.43;98677.81;5037818;28;45441;-65
2022/04/07 05:18:52;;;;;;;;;2.00;1.00;;;;;12.29;72.73;98659.13;5037996;28;45523;-64
2022/04/07 05:21:17;;;;;;;;;2.00;2.00;;;;;12.29;72.90;98667.88;5036465;28;46341;-64
2022/04/07 05:23:43;;;;;;;;;2.00;2.00;;;;;12.28;72.88;98649.56;5037892;28;45409;-64
2022/04/07 05:26:09;;;;;;;;;2.00;2.00;;;;;12.31;71.77;98678.31;5037974;28;45399;-64
2022/04/07 05:28:34;;;;;;;;;1.00;1.00;;;;;12.31;72.38;98660.72;5037642;28;45587;-64
2022/04/07 05:30:59;;;;;;;;;1.33;1.33;;;;;12.32;72.30;98653.63;5037056;28;57503;-64
2022/04/07 05:33:25;;;;;;;;;1.33;1.00;;;;;12.32;71.95;98658.91;5037733;28;45528;-64
2022/04/07 05:35:51;;;;;;;;;1.00;1.00;;;;;12.30;71.39;98643.19;5037950;28;45474;-64
2022/04/07 05:38:16;;;;;;;;;1.00;1.00;;;;;12.33;71.17;98647.41;5036520;28;45636;-64
2022/04/07 05:40:43;;;;;;;;;2.00;2.00;;;;;12.27;71.35;98632.03;5037597;28;45500;-63
2022/04/07 05:43:08;;;;;;;;;2.33;1.00;;;;;12.30;70.83;98627.38;5037598;28;45513;-63
2022/04/07 05:45:34;;;;;;;;;3.00;3.00;;;;;12.38;71.07;98625.03;5037669;28;45415;-64
2022/04/07 05:48:00;;;;;;;;;1.67;1.67;;;;;12.43;70.58;98637.84;5037592;28;45301;-63
2022/04/07 05:50:25;;;;;;;;;3.00;1.00;;;;;12.42;71.43;98624.81;5036250;28;47092;-63
2022/04/07 05:52:51;;;;;;;;;4.00;2.33;;;;;12.44;70.96;98615.81;5037352;28;45444;-64
2022/04/07 05:55:16;;;;;;;;;2.00;2.00;;;;;12.42;71.38;98620.38;5037483;28;45434;-63
2022/04/07 05:57:41;;;;;;;;;2.33;2.00;;;;;12.46;71.51;98623.59;5037112;28;45402;-63
2022/04/07 06:00:12;;;;;;;;;2.00;2.00;;;;;12.43;71.20;98624.66;5037431;28;45408;-64
2022/04/07 06:02:39;;;;;;;;;2.00;2.00;;;;;12.47;70.57;98609.50;5035974;28;45441;-63
2022/04/07 06:05:06;;;;;;;;;4.33;2.00;;;;;12.50;70.60;98628.53;5037192;28;45454;-63
2022/04/07 06:07:31;;;;;;;;;1.00;1.00;;;;;12.49;70.00;98631.28;5035759;28;45480;-64
2022/04/07 06:09:57;;;;;;;;;1.00;1.00;;;;;12.46;69.63;98607.78;5037193;28;46213;-64
2022/04/07 06:12:22;;;;;;;;;2.33;1.33;;;;;12.48;70.32;98627.81;5036965;28;45374;-64
2022/04/07 06:14:47;;;;;;;;;3.33;1.00;;;;;12.47;70.18;98634.06;5037280;28;45395;-63
2022/04/07 06:17:13;;;;;;;;;4.67;4.00;;;;;12.41;70.04;98628.38;5037213;28;45388;-66
2022/04/07 06:19:39;;;;;;;;;2.00;1.00;;;;;12.44;70.13;98620.22;5037110;28;46098;-64
2022/04/07 06:22:07;;;;;;;;;2.00;2.00;;;;;12.43;70.30;98623.84;5036912;28;45479;-64
2022/04/07 06:24:32;;;;;;;;;2.00;2.00;;;;;12.47;70.12;98615.59;5037090;28;45477;-64
2022/04/07 06:26:58;;;;;;;;;2.67;2.33;;;;;12.45;70.24;98608.75;5036821;28;45585;-64
2022/04/07 06:29:23;;;;;;;;;4.00;2.00;;;;;12.48;70.16;98605.88;5035396;28;46475;-65
2022/04/07 06:31:48;;;;;;;;;3.00;2.00;;;;;12.50;69.64;98623.28;5036611;28;45415;-64
2022/04/07 06:34:14;;;;;;;;;1.00;1.00;;;;;12.49;69.85;98600.50;5037095;28;45449;-63
2022/04/07 06:36:39;;;;;;;;;1.33;1.33;;;;;12.47;69.54;98599.78;5036725;28;45518;-63
2022/04/07 06:39:04;;;;;;;;;3.67;2.33;;;;;12.48;69.64;98605.88;5036614;28;46914;-63
2022/04/07 06:41:30;;;;;;;;;1.00;1.00;;;;;12.49;69.94;98607.56;5036685;28;45419;-63
2022/04/07 06:43:55;;;;;;;;;1.33;1.33;;;;;12.51;69.88;98593.28;5036574;28;45423;-63
2022/04/07 06:46:20;;;;;;;;;2.00;1.00;;;;;12.50;70.63;98596.91;5036411;28;45368;-63
2022/04/07 06:48:46;;;;;;;;;3.00;1.00;;;;;12.47;71.36;98581.31;5036503;28;45390;-63
2022/04/07 06:51:11;;;;;;;;;1.00;1.00;;;;;12.47;71.57;98594.50;5036488;28;45458;-63
2022/04/07 06:53:37;;;;;;;;;3.33;2.33;;;;;12.49;70.79;98587.31;5036655;28;45413;-63
2022/04/07 06:56:02;;;;;;;;;1.00;1.00;;;;;12.45;71.25;98579.75;5036572;28;45537;-63
2022/04/07 06:58:28;;;;;;;;;2.00;1.00;;;;;12.52;70.83;98573.03;5036330;28;45422;-63
2022/04/07 07:00:53;;;;;;;;;1.00;1.00;;;;;12.51;70.91;98574.84;5036352;28;45470;-63
2022/04/07 07:03:18;;;;;;;;;1.00;1.00;;;;;12.50;71.67;98577.59;5036512;28;45478;-63
2022/04/07 07:05:44;;;;;;;;;1.00;1.00;;;;;12.48;71.31;98583.00;5036412;28;45328;-64
2022/04/07 07:08:20;;;;;;;;;2.00;1.00;;;;;12.49;71.56;98583.81;5035631;28;45514;-64
2022/04/07 07:10:47;;;;;;;;;1.00;0.67;;;;;12.50;71.99;98583.72;5036092;28;45430;-64
2022/04/07 07:13:14;;;;;;;;;0.33;0.33;;;;;12.49;71.89;98573.28;5036256;28;45449;-63
2022/04/07 07:15:40;;;;;;;;;0.67;0.67;;;;;12.52;72.04;98589.72;5035989;28;45502;-65
2022/04/07 07:18:06;;;;;;;;;0.67;0.67;;;;;12.50;72.09;98585.53;5036022;28;46288;-62
2022/04/07 07:20:32;;;;;;;;;1.67;1.00;;;;;12.48;72.05;98571.59;5035980;28;45490;-65
2022/04/07 07:22:57;;;;;;;;;1.00;1.00;;;;;12.52;71.72;98566.00;5036087;28;45357;-64
2022/04/07 07:25:23;;;;;;;;;3.00;2.00;;;;;12.54;72.15;98555.31;5036156;28;45637;-64
2022/04/07 07:27:48;;;;;;;;;0.67;0.67;;;;;12.56;72.57;98563.94;5035811;28;46957;-64
2022/04/07 07:30:15;;;;;;;;;0.00;0.00;;;;;12.61;71.76;98569.72;5035846;28;45402;-64
2022/04/07 07:32:42;;;;;;;;;0.00;0.00;;;;;12.62;72.47;98568.75;5036006;28;45474;-64
2022/04/07 07:35:09;;;;;;;;;0.00;0.00;;;;;12.64;72.25;98572.13;5035878;28;45441;-64
2022/04/07 07:37:35;;;;;;;;;1.67;0.00;;;;;12.63;72.27;98580.13;5035552;28;45430;-64
2022/04/07 07:40:05;;;;;;;;;1.00;1.00;;;;;12.63;72.54;98572.22;5035747;28;45474;-64
2022/04/07 07:42:30;;;;;;;;;1.00;0.00;;;;;12.58;72.92;98573.44;5035934;28;45415;-63
2022/04/07 07:44:56;;;;;;;;;0.00;0.00;;;;;12.60;72.75;98576.78;5035607;28;45388;-63
2022/04/07 07:47:21;;;;;;;;;1.00;0.67;;;;;12.60;72.93;98544.31;5035504;28;46054;-63
2022/04/07 07:49:46;;;;;;;;;0.00;0.00;;;;;12.64;72.92;98544.91;5035326;28;50751;-64
2022/04/07 07:52:12;;;;;;;;;0.00;0.00;;;;;12.62;72.21;98523.91;5035732;28;45438;-64
2022/04/07 07:54:37;;;;;;;;;1.00;0.00;;;;;12.68;72.49;98534.03;5035477;28;45613;-64
2022/04/07 07:57:03;;;;;;;;;1.00;1.00;;;;;12.68;72.71;98538.44;5035057;28;45539;-64
2022/04/07 07:59:28;;;;;;;;;2.00;0.00;;;;;12.73;73.20;98545.03;5034061;28;45494;-63
2022/04/07 08:01:53;;;;;;;;;0.00;0.00;;;;;12.74;72.87;98540.63;5035563;28;45487;-64
2022/04/07 08:04:19;;;;;;;;;0.00;0.00;;;;;12.79;72.82;98543.75;5034150;28;45494;-63
2022/04/07 08:06:44;;;;;;;;;1.00;1.00;;;;;12.82;72.51;98536.41;5034924;28;46053;-63
2022/04/07 08:09:10;;;;;;;;;0.00;0.00;;;;;12.83;72.71;98535.44;5035004;28;45440;-66
2022/04/07 08:11:36;;;;;;;;;0.00;0.00;;;;;12.88;72.15;98540.38;5035180;28;45490;-65
2022/04/07 08:14:02;;;;;;;;;0.00;0.00;;;;;12.85;72.92;98532.69;5035392;28;45466;-63
2022/04/07 08:16:30;;;;;;;;;0.00;0.00;;;;;12.90;73.01;98553.47;5034904;28;46060;-63
2022/04/07 08:18:56;;;;;;;;;0.00;0.00;;;;;12.90;72.72;98532.34;5035007;28;45411;-63
2022/04/07 08:21:21;;;;;;;;;0.67;0.00;;;;;12.91;72.84;98534.03;5033977;28;45513;-63
2022/04/07 08:23:47;;;;;;;;;0.00;0.00;;;;;12.98;72.78;98529.94;5035027;28;45494;-64
2022/04/07 08:26:12;;;;;;;;;0.00;0.00;;;;;13.01;73.00;98537.63;5034779;28;45473;-64
2022/04/07 08:28:38;;;;;;;;;0.00;0.00;;;;;13.04;72.16;98514.47;5034909;28;45513;-63
2022/04/07 08:31:03;;;;;;;;;0.00;0.00;;;;;13.09;72.26;98532.59;5034876;28;45504;-64
2022/04/07 08:33:28;;;;;;;;;0.00;0.00;;;;;13.14;72.12;98530.41;5034910;28;45527;-63
2022/04/07 08:35:54;;;;;;;;;0.00;0.00;;;;;13.20;72.10;98529.94;5033367;28;48353;-63
2022/04/07 08:38:20;;;;;;;;;0.00;0.00;;;;;13.25;71.51;98511.94;5034757;28;45469;-64
2022/04/07 08:40:51;;;;;;;;;0.00;0.00;;;;;13.33;71.46;98521.91;5035069;28;45406;-63
2022/04/07 08:43:17;;;;;;;;;6.33;5.33;;;;;13.34;71.95;98507.72;5034881;28;45447;-63
2022/04/07 08:45:43;;;;;;;;;0.00;0.00;;;;;13.39;71.15;98516.13;5034471;28;46392;-64
2022/04/07 08:48:11;;;;;;;;;0.00;0.00;;;;;13.46;71.53;98527.88;5034676;28;45432;-64
2022/04/07 08:50:41;;;;;;;;;0.33;0.33;;;;;13.52;71.63;98520.44;5034656;28;45383;-64
2022/04/07 08:53:07;;;;;;;;;0.00;0.00;;;;;13.56;70.41;98516.56;5034625;28;45421;-63
2022/04/07 08:55:33;;;;;;;;;0.00;0.00;;;;;13.61;70.87;98519.69;5034307;28;46064;-63
2022/04/07 08:58:02;;;;;;;;;0.00;0.00;;;;;13.68;70.59;98507.66;5034530;28;45465;-64
2022/04/07 09:00:27;;;;;;;;;0.00;0.00;;;;;13.71;69.95;98523.25;5034348;28;45464;-64
2022/04/07 09:02:53;;;;;;;;;0.00;0.00;;;;;13.78;69.98;98521.81;5034456;28;45485;-64
2022/04/07 09:05:25;;;;;;;;;0.00;0.00;;;;;13.80;69.81;98519.00;5034442;28;46503;-64
2022/04/07 09:07:53;;;;;;;;;0.33;0.33;;;;;13.88;69.88;98530.63;5034142;28;45373;-63
2022/04/07 09:10:21;;;;;;;;;0.00;0.00;;;;;13.91;69.66;98530.38;5034342;28;45541;-63
2022/04/07 09:12:46;;;;;;;;;0.00;0.00;;;;;13.95;69.61;98520.41;5034469;28;45359;-63
2022/04/07 09:15:13;;;;;;;;;0.00;0.00;;;;;14.01;69.45;98511.97;5033012;28;46294;-63
2022/04/07 09:17:55;;;;;;;;;0.00;0.00;;;;;14.03;69.25;98511.84;5034446;28;45507;-63
2022/04/07 09:20:21;;;;;;;;;0.00;0.00;;;;;14.06;69.19;98524.81;5034293;28;45495;-63
2022/04/07 09:22:58;;;;;;;;;0.00;0.00;;;;;14.03;69.62;98515.31;5034461;28;45445;-64
2022/04/07 09:25:24;;;;;;;;;0.00;0.00;;;;;14.04;69.87;98517.00;5034414;28;46351;-63
2022/04/07 09:27:49;;;;;;;;;0.00;0.00;;;;;14.13;69.50;98531.22;5034286;28;45399;-64
2022/04/07 09:30:15;;;;;;;;;0.00;0.00;;;;;14.17;69.47;98522.09;5034548;28;45415;-63
2022/04/07 09:32:45;;;;;;;;;0.00;0.00;;;;;14.22;69.01;98519.91;5036165;28;45524;-65
2022/04/07 09:35:11;;;;;;;;;0.00;0.00;;;;;14.24;69.08;98525.06;5037536;28;46248;-64
2022/04/07 09:37:40;;;;;;;;;0.00;0.00;;;;;14.30;69.02;98525.41;5037751;28;45407;-64
2022/04/07 09:40:12;;;;;;;;;0.00;0.00;;;;;14.35;68.85;98536.44;5037808;28;45317;-64
2022/04/07 09:42:38;;;;;;;;;0.00;0.00;;;;;14.40;68.28;98522.81;5037595;28;45505;-64
2022/04/07 09:45:07;;;;;;;;;0.00;0.00;;;;;14.41;67.43;98545.66;5037356;28;46225;-64
2022/04/07 09:47:53;;;;;;;;;0.00;0.00;;;;;14.44;66.98;98545.38;5037397;28;45435;-64
2022/04/07 09:50:31;;;;;;;;;0.00;0.00;;;;;14.43;66.66;98541.06;5035831;28;45461;-63
2022/04/07 09:52:56;;;;;;;;;1.33;1.33;;;;;14.44;67.21;98555.97;5037485;28;45434;-63
2022/04/07 09:55:25;;;;;;;;;0.00;0.00;;;;;14.47;67.19;98545.13;5037188;28;46058;-63
2022/04/07 09:57:52;;;;;;;;;0.00;0.00;;;;;14.51;67.25;98557.13;5037164;28;45390;-63
2022/04/07 10:00:18;;;;;;;;;0.00;0.00;;;;;14.56;66.90;98556.75;5037061;28;45426;-63
2022/04/07 10:02:44;;;;;;;;;0.00;0.00;;;;;14.44;66.31;98533.97;5037208;28;45394;-63
2022/04/07 10:05:09;;;;;;;;;0.00;0.00;;;;;14.63;66.10;98544.69;5037051;28;46692;-63
2022/04/07 10:07:35;;;;;;;;;1.00;1.00;;;;;14.66;65.66;98543.59;5036732;28;45534;-63
2022/04/07 10:10:02;;;;;;;;;0.67;0.00;;;;;14.69;65.85;98545.97;5037173;28;45586;-63
2022/04/07 10:12:27;;;;;;;;;0.00;0.00;;;;;14.70;66.75;98550.31;5036858;28;45558;-63
2022/04/07 10:14:54;;;;;;;;;0.00;0.00;;;;;14.68;66.94;98558.38;5036763;28;46735;-64
2022/04/07 10:17:19;;;;;;;;;0.00;0.00;;;;;14.65;67.42;98563.94;5036977;28;45497;-63
2022/04/07 10:20:01;;;;;;;;;0.67;0.67;;;;;14.65;68.25;98610.72;5036739;28;45492;-63
2022/04/07 10:22:58;;;;;;;;;3.33;1.67;;;;;14.55;70.34;98645.88;5036993;28;45570;-64
2022/04/07 10:25:25;;;;;;;;;0.00;0.00;;;;;14.39;69.39;98634.84;5018451;28;46224;-64
2022/04/07 10:27:54;;;;;;;;;0.00;0.00;;;;;14.22;70.02;98632.75;5036610;28;45418;-64
2022/04/07 10:30:20;;;;;;;;;0.00;0.00;;;;;14.16;70.40;98642.03;5036435;28;45471;-64
2022/04/07 10:32:52;;;;;;;;;0.00;0.00;;;;;14.12;70.79;98654.66;5036353;28;45571;-64
2022/04/07 10:35:29;;;;;;;;;1.00;0.00;;;;;14.08;70.20;98634.72;5036313;28;45541;-64
2022/04/07 10:37:55;;;;;;;;;0.00;0.00;;;;;14.03;69.62;98634.25;5034807;28;45437;-64
2022/04/07 10:40:37;;;;;;;;;0.00;0.00;;;;;14.05;69.70;98639.41;5036560;28;45513;-64
2022/04/07 10:43:13;;;;;;;;;0.00;0.00;;;;;14.04;69.43;98672.09;5035879;28;45350;-64
2022/04/07 10:45:40;;;;;;;;;0.00;0.00;;;;;14.05;68.72;98660.56;5035821;28;45562;-64
2022/04/07 10:48:30;;;;;;;;;1.00;1.00;;;;;14.08;68.23;98670.91;5036034;28;45508;-63
2022/04/07 10:50:58;;;;;;;;;0.00;0.00;;;;;14.04;67.28;98645.66;5036369;28;45460;-63
2022/04/07 10:53:30;;;;;;;;;0.00;0.00;;;;;14.11;66.41;98670.66;5036212;28;45362;-62
2022/04/07 10:55:59;;;;;;;;;0.00;0.00;;;;;14.12;65.44;98696.94;5035917;28;45446;-63
2022/04/07 10:58:36;;;;;;;;;0.00;0.00;;;;;14.14;65.06;98692.38;5036055;28;45493;-63
2022/04/07 11:01:01;;;;;;;;;0.00;0.00;;;;;14.18;65.21;98674.47;5036081;28;45491;-66
2022/04/07 11:03:27;;;;;;;;;0.00;0.00;;;;;14.20;65.23;98677.81;5036015;28;45426;-64
2022/04/07 11:06:00;;;;;;;;;0.00;0.00;;;;;14.25;63.88;98685.38;5034578;28;46521;-63
2022/04/07 11:08:26;;;;;;;;;0.00;0.00;;;;;14.30;63.51;98691.97;5035579;28;45443;-64
2022/04/07 11:10:53;;;;;;;;;0.00;0.00;;;;;14.36;64.20;98698.56;5036027;28;45547;-64
2022/04/07 11:13:43;;;;;;;;;0.00;0.00;;;;;14.38;63.24;98664.09;5035792;28;45505;-63
2022/04/07 11:16:36;;;;;;;;;0.00;0.00;;;;;14.43;63.03;98686.53;5035371;28;45336;-62
2022/04/07 11:19:11;;;;;;;;;0.00;0.00;;;;;14.49;63.66;98685.19;5035639;28;45400;-64
2022/04/07 11:21:45;;;;;;;;;0.33;0.33;;;;;14.50;62.67;98700.91;5035884;28;45412;-64
2022/04/07 11:24:20;;;;;;;;;0.00;0.00;;;;;14.55;63.42;98705.88;5035868;28;45350;-62
2022/04/07 11:26:45;;;;;;;;;0.00;0.00;;;;;14.60;62.69;98701.06;5035318;28;46566;-63
2022/04/07 11:29:12;;;;;;;;;0.67;0.67;;;;;14.67;62.78;98723.41;5035483;28;45376;-63
2022/04/07 11:31:38;;;;;;;;;0.00;0.00;;;;;14.64;63.09;98702.50;5035862;28;45391;-64
2022/04/07 11:34:39;;;;;;;;;1.00;1.00;;;;;14.82;61.61;98728.38;5035815;28;45613;-64